sensor_id;sensor_type;location;lat;lon;timestamp;temperature;humidity
26270;DHT22;15937;50.612;6.656;2023-02-15T00:01:57;4.90;99.90
26270;DHT22;15937;50.612;6.656;2023-02-15T00:05:59;4.70;99.90
26270;DHT22;15937;50.612;6.656;2023-02-15T00:10:01;4.50;99.90
26270;DHT22;15937;50.612;6.656;2023-02-15T00:14:07;4.30;99.90
26270;DHT22;15937;50.612;6.656;2023-02-15T00:18:09;4.20;99.90
26270;DHT22;15937;50.612;6.656;2023-02-15T00:22:10;4.30;99.90
26270;DHT22;15937;50.612;6.656;2023-02-15T00:26:12;4.10;99.90
26270;DHT22;15937;50.612;6.656;2023-02-15T00:30:14;4.10;99.90
26270;DHT22;15937;50.612;6.656;2023-02-15T00:34:19;3.90;99.90
26270;DHT22;15937;50.612;6.656;2023-02-15T00:38:21;3.90;99.90
26270;DHT22;15937;50.612;6.656;2023-02-15T00:42:23;3.80;99.90
26270;DHT22;15937;50.612;6.656;2023-02-15T00:46:25;3.90;99.90
26270;DHT22;15937;50.612;6.656;2023-02-15T00:50:27;3.90;99.90
26270;DHT22;15937;50.612;6.656;2023-02-15T00:54:28;3.90;99.90
26270;DHT22;15937;50.612;6.656;2023-02-15T00:58:30;3.90;99.90
26270;DHT22;15937;50.612;6.656;2023-02-15T01:02:32;3.90;99.90
26270;DHT22;15937;50.612;6.656;2023-02-15T01:06:33;3.90;99.90
26270;DHT22;15937;50.612;6.656;2023-02-15T01:10:35;4.10;99.90
26270;DHT22;15937;50.612;6.656;2023-02-15T01:14:37;4.10;99.90
26270;DHT22;15937;50.612;6.656;2023-02-15T01:18:38;4.10;99.90
26270;DHT22;15937;50.612;6.656;2023-02-15T01:22:40;4.30;99.90
26270;DHT22;15937;50.612;6.656;2023-02-15T01:26:41;4.30;99.90
26270;DHT22;15937;50.612;6.656;2023-02-15T01:30:43;4.30;99.90
26270;DHT22;15937;50.612;6.656;2023-02-15T01:34:45;4.40;99.90
26270;DHT22;15937;50.612;6.656;2023-02-15T01:38:46;4.70;99.90
26270;DHT22;15937;50.612;6.656;2023-02-15T01:42:52;5.00;99.90
26270;DHT22;15937;50.612;6.656;2023-02-15T01:46:54;5.20;99.90
26270;DHT22;15937;50.612;6.656;2023-02-15T01:50:56;5.50;99.90
26270;DHT22;15937;50.612;6.656;2023-02-15T01:54:59;5.30;99.90
26270;DHT22;15937;50.612;6.656;2023-02-15T01:59:02;5.10;99.90
26270;DHT22;15937;50.612;6.656;2023-02-15T02:03:07;5.00;99.90
26270;DHT22;15937;50.612;6.656;2023-02-15T02:07:08;4.90;99.90
26270;DHT22;15937;50.612;6.656;2023-02-15T02:11:11;4.90;99.90
26270;DHT22;15937;50.612;6.656;2023-02-15T02:15:13;4.80;99.90
26270;DHT22;15937;50.612;6.656;2023-02-15T02:23:49;4.50;99.90
26270;DHT22;15937;50.612;6.656;2023-02-15T02:32:14;4.10;99.90
26270;DHT22;15937;50.612;6.656;2023-02-15T02:45:05;4.00;99.90
26270;DHT22;15937;50.612;6.656;2023-02-15T02:49:08;3.90;99.90
26270;DHT22;15937;50.612;6.656;2023-02-15T02:53:10;3.70;99.90
26270;DHT22;15937;50.612;6.656;2023-02-15T02:57:12;3.60;99.90
26270;DHT22;15937;50.612;6.656;2023-02-15T03:05:17;3.60;99.90
26270;DHT22;15937;50.612;6.656;2023-02-15T03:09:39;3.60;99.90
26270;DHT22;15937;50.612;6.656;2023-02-15T03:13:44;3.60;99.90
26270;DHT22;15937;50.612;6.656;2023-02-15T03:17:48;3.30;99.90
26270;DHT22;15937;50.612;6.656;2023-02-15T03:21:51;3.10;99.90
26270;DHT22;15937;50.612;6.656;2023-02-15T03:26:05;2.90;99.90
26270;DHT22;15937;50.612;6.656;2023-02-15T03:30:08;3.00;99.90
26270;DHT22;15937;50.612;6.656;2023-02-15T03:34:12;3.20;99.90
26270;DHT22;15937;50.612;6.656;2023-02-15T03:38:17;3.20;99.90
26270;DHT22;15937;50.612;6.656;2023-02-15T03:42:25;3.10;99.90
26270;DHT22;15937;50.612;6.656;2023-02-15T03:50:30;3.00;99.90
26270;DHT22;15937;50.612;6.656;2023-02-15T03:54:50;3.10;99.90
26270;DHT22;15937;50.612;6.656;2023-02-15T03:58:52;3.20;99.90
26270;DHT22;15937;50.612;6.656;2023-02-15T04:07:17;3.00;99.90
26270;DHT22;15937;50.612;6.656;2023-02-15T04:11:19;3.10;99.90
26270;DHT22;15937;50.612;6.656;2023-02-15T04:15:20;3.00;99.90
26270;DHT22;15937;50.612;6.656;2023-02-15T04:19:41;3.00;99.90
26270;DHT22;15937;50.612;6.656;2023-02-15T04:24:01;3.10;99.90
26270;DHT22;15937;50.612;6.656;2023-02-15T04:28:21;3.10;99.90
26270;DHT22;15937;50.612;6.656;2023-02-15T04:32:23;3.20;99.90
26270;DHT22;15937;50.612;6.656;2023-02-15T04:36:24;3.10;99.90
26270;DHT22;15937;50.612;6.656;2023-02-15T04:40:26;2.90;99.90
26270;DHT22;15937;50.612;6.656;2023-02-15T04:44:29;3.00;99.90
26270;DHT22;15937;50.612;6.656;2023-02-15T04:48:31;2.90;99.90
26270;DHT22;15937;50.612;6.656;2023-02-15T04:52:33;2.90;99.90
26270;DHT22;15937;50.612;6.656;2023-02-15T04:56:34;3.00;99.90
26270;DHT22;15937;50.612;6.656;2023-02-15T05:00:39;3.00;99.90
26270;DHT22;15937;50.612;6.656;2023-02-15T05:04:40;3.10;99.90
26270;DHT22;15937;50.612;6.656;2023-02-15T05:08:42;2.90;99.90
26270;DHT22;15937;50.612;6.656;2023-02-15T05:12:43;2.70;99.90
26270;DHT22;15937;50.612;6.656;2023-02-15T05:16:45;2.90;99.90
26270;DHT22;15937;50.612;6.656;2023-02-15T05:20:47;2.80;99.90
26270;DHT22;15937;50.612;6.656;2023-02-15T05:24:49;2.60;99.90
26270;DHT22;15937;50.612;6.656;2023-02-15T05:29:09;2.70;99.90
26270;DHT22;15937;50.612;6.656;2023-02-15T05:33:11;2.70;99.90
26270;DHT22;15937;50.612;6.656;2023-02-15T05:37:13;2.60;99.90
26270;DHT22;15937;50.612;6.656;2023-02-15T05:41:15;2.80;99.90
26270;DHT22;15937;50.612;6.656;2023-02-15T05:45:16;3.00;99.90
26270;DHT22;15937;50.612;6.656;2023-02-15T05:49:18;2.80;99.90
26270;DHT22;15937;50.612;6.656;2023-02-15T05:53:19;2.90;99.90
26270;DHT22;15937;50.612;6.656;2023-02-15T05:57:21;3.10;99.90
26270;DHT22;15937;50.612;6.656;2023-02-15T06:01:23;3.20;99.90
26270;DHT22;15937;50.612;6.656;2023-02-15T06:05:24;3.20;99.90
26270;DHT22;15937;50.612;6.656;2023-02-15T06:09:26;3.10;99.90
26270;DHT22;15937;50.612;6.656;2023-02-15T06:13:28;3.10;99.90
26270;DHT22;15937;50.612;6.656;2023-02-15T06:17:30;2.90;99.90
26270;DHT22;15937;50.612;6.656;2023-02-15T06:21:31;2.90;99.90
26270;DHT22;15937;50.612;6.656;2023-02-15T06:25:33;3.00;99.90
26270;DHT22;15937;50.612;6.656;2023-02-15T06:29:37;3.00;99.90
26270;DHT22;15937;50.612;6.656;2023-02-15T06:33:38;2.70;99.90
26270;DHT22;15937;50.612;6.656;2023-02-15T06:37:40;2.90;99.90
26270;DHT22;15937;50.612;6.656;2023-02-15T06:41:42;3.00;99.90
26270;DHT22;15937;50.612;6.656;2023-02-15T06:45:44;3.00;99.90
26270;DHT22;15937;50.612;6.656;2023-02-15T06:49:45;3.10;99.90
26270;DHT22;15937;50.612;6.656;2023-02-15T06:53:47;3.00;99.90
26270;DHT22;15937;50.612;6.656;2023-02-15T06:57:48;2.90;99.90
26270;DHT22;15937;50.612;6.656;2023-02-15T07:01:51;2.90;99.90
26270;DHT22;15937;50.612;6.656;2023-02-15T07:05:54;2.70;99.90
26270;DHT22;15937;50.612;6.656;2023-02-15T07:09:55;2.70;99.90
26270;DHT22;15937;50.612;6.656;2023-02-15T07:13:57;2.70;99.90
26270;DHT22;15937;50.612;6.656;2023-02-15T07:17:59;2.70;99.90
26270;DHT22;15937;50.612;6.656;2023-02-15T07:22:01;3.00;99.90
26270;DHT22;15937;50.612;6.656;2023-02-15T07:26:03;3.00;99.90
26270;DHT22;15937;50.612;6.656;2023-02-15T07:30:05;3.10;99.90
26270;DHT22;15937;50.612;6.656;2023-02-15T07:34:08;3.30;99.90
26270;DHT22;15937;50.612;6.656;2023-02-15T07:38:09;3.50;99.90
26270;DHT22;15937;50.612;6.656;2023-02-15T07:42:11;3.50;99.90
26270;DHT22;15937;50.612;6.656;2023-02-15T07:46:13;3.70;99.90
26270;DHT22;15937;50.612;6.656;2023-02-15T07:50:16;3.90;99.90
26270;DHT22;15937;50.612;6.656;2023-02-15T07:54:18;4.10;99.90
26270;DHT22;15937;50.612;6.656;2023-02-15T07:58:19;4.30;99.90
26270;DHT22;15937;50.612;6.656;2023-02-15T08:02:21;4.40;99.90
26270;DHT22;15937;50.612;6.656;2023-02-15T08:06:23;4.60;99.90
26270;DHT22;15937;50.612;6.656;2023-02-15T08:10:26;4.90;99.90
26270;DHT22;15937;50.612;6.656;2023-02-15T08:14:47;5.00;99.90
26270;DHT22;15937;50.612;6.656;2023-02-15T08:18:49;5.20;99.90
26270;DHT22;15937;50.612;6.656;2023-02-15T08:22:51;5.40;99.90
26270;DHT22;15937;50.612;6.656;2023-02-15T08:26:53;5.70;99.90
26270;DHT22;15937;50.612;6.656;2023-02-15T08:30:55;6.00;99.90
26270;DHT22;15937;50.612;6.656;2023-02-15T08:34:56;6.40;99.90
26270;DHT22;15937;50.612;6.656;2023-02-15T08:38:58;6.50;99.90
26270;DHT22;15937;50.612;6.656;2023-02-15T08:43:00;6.70;99.90
26270;DHT22;15937;50.612;6.656;2023-02-15T08:47:02;6.80;99.90
26270;DHT22;15937;50.612;6.656;2023-02-15T08:51:06;7.10;99.90
26270;DHT22;15937;50.612;6.656;2023-02-15T08:55:08;7.20;99.90
26270;DHT22;15937;50.612;6.656;2023-02-15T08:59:19;7.60;99.90
26270;DHT22;15937;50.612;6.656;2023-02-15T09:03:21;7.80;99.90
26270;DHT22;15937;50.612;6.656;2023-02-15T09:07:23;8.00;99.90
26270;DHT22;15937;50.612;6.656;2023-02-15T09:11:26;8.30;99.90
26270;DHT22;15937;50.612;6.656;2023-02-15T09:15:28;8.50;99.90
26270;DHT22;15937;50.612;6.656;2023-02-15T09:19:29;8.70;99.90
26270;DHT22;15937;50.612;6.656;2023-02-15T09:23:31;9.00;99.90
26270;DHT22;15937;50.612;6.656;2023-02-15T09:27:33;9.30;99.90
26270;DHT22;15937;50.612;6.656;2023-02-15T09:31:45;9.60;99.90
26270;DHT22;15937;50.612;6.656;2023-02-15T09:35:49;9.70;99.90
26270;DHT22;15937;50.612;6.656;2023-02-15T09:39:51;10.10;99.50
26270;DHT22;15937;50.612;6.656;2023-02-15T09:48:14;10.40;98.60
26270;DHT22;15937;50.612;6.656;2023-02-15T09:53:23;10.60;96.80
26270;DHT22;15937;50.612;6.656;2023-02-15T09:56:51;10.90;95.50
26270;DHT22;15937;50.612;6.656;2023-02-15T10:09:02;11.40;92.70
26270;DHT22;15937;50.612;6.656;2023-02-15T10:25:28;12.00;91.20
26270;DHT22;15937;50.612;6.656;2023-02-15T10:45:56;12.60;89.20
26270;DHT22;15937;50.612;6.656;2023-02-15T11:03:02;13.10;82.10
26270;DHT22;15937;50.612;6.656;2023-02-15T11:07:15;12.90;86.80
26270;DHT22;15937;50.612;6.656;2023-02-15T11:11:36;13.30;83.90
26270;DHT22;15937;50.612;6.656;2023-02-15T11:19:55;13.50;79.00
26270;DHT22;15937;50.612;6.656;2023-02-15T11:23:59;13.70;77.90
26270;DHT22;15937;50.612;6.656;2023-02-15T11:28:03;13.60;78.80
26270;DHT22;15937;50.612;6.656;2023-02-15T11:32:26;13.70;86.00
26270;DHT22;15937;50.612;6.656;2023-02-15T11:36:31;13.80;81.10
26270;DHT22;15937;50.612;6.656;2023-02-15T11:40:42;14.20;74.20
26270;DHT22;15937;50.612;6.656;2023-02-15T11:49:27;14.40;74.00
26270;DHT22;15937;50.612;6.656;2023-02-15T11:53:32;14.30;75.60
26270;DHT22;15937;50.612;6.656;2023-02-15T11:57:37;14.30;74.80
26270;DHT22;15937;50.612;6.656;2023-02-15T12:01:44;14.40;70.10
26270;DHT22;15937;50.612;6.656;2023-02-15T12:05:47;14.50;70.00
26270;DHT22;15937;50.612;6.656;2023-02-15T12:10:03;14.50;70.60
26270;DHT22;15937;50.612;6.656;2023-02-15T12:14:09;14.60;69.90
26270;DHT22;15937;50.612;6.656;2023-02-15T12:18:18;14.60;68.60
26270;DHT22;15937;50.612;6.656;2023-02-15T12:22:25;14.60;86.20
26270;DHT22;15937;50.612;6.656;2023-02-15T12:26:31;13.90;93.40
26270;DHT22;15937;50.612;6.656;2023-02-15T12:30:36;13.80;96.10
26270;DHT22;15937;50.612;6.656;2023-02-15T12:34:39;13.50;98.00
26270;DHT22;15937;50.612;6.656;2023-02-15T12:38:42;13.50;99.00
26270;DHT22;15937;50.612;6.656;2023-02-15T12:42:44;13.70;95.90
26270;DHT22;15937;50.612;6.656;2023-02-15T12:46:59;14.00;97.70
26270;DHT22;15937;50.612;6.656;2023-02-15T12:51:07;14.30;89.70
26270;DHT22;15937;50.612;6.656;2023-02-15T12:55:21;15.00;71.60
26270;DHT22;15937;50.612;6.656;2023-02-15T12:59:23;15.00;70.70
26270;DHT22;15937;50.612;6.656;2023-02-15T13:03:24;15.00;70.70
26270;DHT22;15937;50.612;6.656;2023-02-15T13:07:30;15.10;68.30
26270;DHT22;15937;50.612;6.656;2023-02-15T13:11:32;15.00;69.00
26270;DHT22;15937;50.612;6.656;2023-02-15T13:15:36;15.00;71.40
26270;DHT22;15937;50.612;6.656;2023-02-15T13:19:42;15.20;67.20
26270;DHT22;15937;50.612;6.656;2023-02-15T13:23:48;15.20;68.40
26270;DHT22;15937;50.612;6.656;2023-02-15T13:27:51;15.20;69.70
26270;DHT22;15937;50.612;6.656;2023-02-15T13:31:54;15.20;67.50
26270;DHT22;15937;50.612;6.656;2023-02-15T13:44:20;14.10;95.90
26270;DHT22;15937;50.612;6.656;2023-02-15T13:48:38;13.60;99.40
26270;DHT22;15937;50.612;6.656;2023-02-15T13:52:55;13.50;99.60
26270;DHT22;15937;50.612;6.656;2023-02-15T13:57:06;13.50;99.90
26270;DHT22;15937;50.612;6.656;2023-02-15T14:01:20;13.30;99.90
26270;DHT22;15937;50.612;6.656;2023-02-15T14:09:36;13.20;99.90
26270;DHT22;15937;50.612;6.656;2023-02-15T14:30:33;13.10;99.90
26270;DHT22;15937;50.612;6.656;2023-02-15T14:38:43;13.20;99.90
26270;DHT22;15937;50.612;6.656;2023-02-15T14:46:55;12.80;99.90
26270;DHT22;15937;50.612;6.656;2023-02-15T14:50:59;12.70;99.90
26270;DHT22;15937;50.612;6.656;2023-02-15T14:55:04;12.60;99.90
26270;DHT22;15937;50.612;6.656;2023-02-15T15:03:23;12.40;99.90
26270;DHT22;15937;50.612;6.656;2023-02-15T15:07:27;12.40;99.90
26270;DHT22;15937;50.612;6.656;2023-02-15T15:15:45;12.20;99.90
26270;DHT22;15937;50.612;6.656;2023-02-15T15:23:53;12.10;99.90
26270;DHT22;15937;50.612;6.656;2023-02-15T15:27:54;12.10;99.90
26270;DHT22;15937;50.612;6.656;2023-02-15T15:31:56;12.00;99.90
26270;DHT22;15937;50.612;6.656;2023-02-15T15:48:34;12.10;99.90
26270;DHT22;15937;50.612;6.656;2023-02-15T15:52:37;12.10;99.90
26270;DHT22;15937;50.612;6.656;2023-02-15T15:56:40;12.10;99.90
26270;DHT22;15937;50.612;6.656;2023-02-15T16:00:46;11.90;99.90
26270;DHT22;15937;50.612;6.656;2023-02-15T16:04:49;12.00;99.90
26270;DHT22;15937;50.612;6.656;2023-02-15T16:08:51;12.30;96.10
26270;DHT22;15937;50.612;6.656;2023-02-15T16:12:52;12.60;93.30
26270;DHT22;15937;50.612;6.656;2023-02-15T16:16:55;12.50;92.80
26270;DHT22;15937;50.612;6.656;2023-02-15T16:20:58;12.60;92.20
26270;DHT22;15937;50.612;6.656;2023-02-15T16:29:23;12.40;92.10
26270;DHT22;15937;50.612;6.656;2023-02-15T16:33:34;12.40;92.10
26270;DHT22;15937;50.612;6.656;2023-02-15T16:37:37;12.30;92.40
26270;DHT22;15937;50.612;6.656;2023-02-15T16:41:39;12.10;93.20
26270;DHT22;15937;50.612;6.656;2023-02-15T16:45:40;12.10;92.70
26270;DHT22;15937;50.612;6.656;2023-02-15T16:49:45;12.00;92.90
26270;DHT22;15937;50.612;6.656;2023-02-15T16:53:47;12.00;93.00
26270;DHT22;15937;50.612;6.656;2023-02-15T16:57:50;11.80;93.30
26270;DHT22;15937;50.612;6.656;2023-02-15T17:01:52;11.80;93.70
26270;DHT22;15937;50.612;6.656;2023-02-15T17:05:55;11.70;94.20
26270;DHT22;15937;50.612;6.656;2023-02-15T17:09:57;11.60;94.40
26270;DHT22;15937;50.612;6.656;2023-02-15T17:18:12;11.50;94.80
26270;DHT22;15937;50.612;6.656;2023-02-15T17:22:22;11.30;95.40
26270;DHT22;15937;50.612;6.656;2023-02-15T17:26:29;11.20;95.70
26270;DHT22;15937;50.612;6.656;2023-02-15T17:30:32;11.20;95.90
26270;DHT22;15937;50.612;6.656;2023-02-15T17:34:50;11.10;96.20
26270;DHT22;15937;50.612;6.656;2023-02-15T17:43:00;10.90;96.50
26270;DHT22;15937;50.612;6.656;2023-02-15T17:47:02;10.90;96.80
26270;DHT22;15937;50.612;6.656;2023-02-15T17:51:05;10.80;97.00
26270;DHT22;15937;50.612;6.656;2023-02-15T17:55:12;10.70;97.20
26270;DHT22;15937;50.612;6.656;2023-02-15T17:59:32;10.60;97.40
26270;DHT22;15937;50.612;6.656;2023-02-15T18:03:44;10.50;97.90
26270;DHT22;15937;50.612;6.656;2023-02-15T18:08:08;10.40;97.90
26270;DHT22;15937;50.612;6.656;2023-02-15T18:12:30;10.40;97.90
26270;DHT22;15937;50.612;6.656;2023-02-15T18:16:36;10.40;97.90
26270;DHT22;15937;50.612;6.656;2023-02-15T18:20:39;10.30;98.10
26270;DHT22;15937;50.612;6.656;2023-02-15T18:24:42;10.20;98.30
26270;DHT22;15937;50.612;6.656;2023-02-15T18:28:44;10.20;98.30
26270;DHT22;15937;50.612;6.656;2023-02-15T18:32:46;10.10;98.40
26270;DHT22;15937;50.612;6.656;2023-02-15T18:36:48;10.00;98.70
26270;DHT22;15937;50.612;6.656;2023-02-15T18:40:50;10.00;98.80
26270;DHT22;15937;50.612;6.656;2023-02-15T18:45:06;9.80;99.10
26270;DHT22;15937;50.612;6.656;2023-02-15T18:49:13;9.70;99.40
26270;DHT22;15937;50.612;6.656;2023-02-15T18:53:16;9.60;99.90
26270;DHT22;15937;50.612;6.656;2023-02-15T18:57:19;9.60;99.90
26270;DHT22;15937;50.612;6.656;2023-02-15T19:01:21;9.40;99.90
26270;DHT22;15937;50.612;6.656;2023-02-15T19:05:23;9.40;99.90
26270;DHT22;15937;50.612;6.656;2023-02-15T19:09:25;9.30;99.90
26270;DHT22;15937;50.612;6.656;2023-02-15T19:13:28;9.30;99.90
26270;DHT22;15937;50.612;6.656;2023-02-15T19:17:30;9.30;99.90
26270;DHT22;15937;50.612;6.656;2023-02-15T19:21:31;9.20;99.90
26270;DHT22;15937;50.612;6.656;2023-02-15T19:25:33;9.20;99.90
26270;DHT22;15937;50.612;6.656;2023-02-15T19:29:38;9.20;99.90
26270;DHT22;15937;50.612;6.656;2023-02-15T19:33:39;9.10;99.90
26270;DHT22;15937;50.612;6.656;2023-02-15T19:37:42;9.00;99.90
26270;DHT22;15937;50.612;6.656;2023-02-15T19:41:45;8.90;99.90
26270;DHT22;15937;50.612;6.656;2023-02-15T19:45:46;8.90;99.90
26270;DHT22;15937;50.612;6.656;2023-02-15T19:49:49;8.80;99.90
26270;DHT22;15937;50.612;6.656;2023-02-15T19:53:51;8.80;99.90
26270;DHT22;15937;50.612;6.656;2023-02-15T19:57:53;8.80;99.90
26270;DHT22;15937;50.612;6.656;2023-02-15T20:01:55;8.80;99.90
26270;DHT22;15937;50.612;6.656;2023-02-15T20:05:57;8.70;99.90
26270;DHT22;15937;50.612;6.656;2023-02-15T20:09:58;8.70;99.90
26270;DHT22;15937;50.612;6.656;2023-02-15T20:14:00;8.70;99.90
26270;DHT22;15937;50.612;6.656;2023-02-15T20:18:02;8.60;99.90
26270;DHT22;15937;50.612;6.656;2023-02-15T20:22:04;8.50;99.90
26270;DHT22;15937;50.612;6.656;2023-02-15T20:26:13;8.40;99.90
26270;DHT22;15937;50.612;6.656;2023-02-15T20:30:25;8.20;99.90
26270;DHT22;15937;50.612;6.656;2023-02-15T20:34:27;8.10;99.90
26270;DHT22;15937;50.612;6.656;2023-02-15T20:38:28;8.10;99.90
26270;DHT22;15937;50.612;6.656;2023-02-15T20:42:31;8.10;99.90
26270;DHT22;15937;50.612;6.656;2023-02-15T20:46:33;8.00;99.90
26270;DHT22;15937;50.612;6.656;2023-02-15T20:50:34;8.10;99.90
26270;DHT22;15937;50.612;6.656;2023-02-15T20:54:36;8.10;99.90
26270;DHT22;15937;50.612;6.656;2023-02-15T20:58:37;7.90;99.90
26270;DHT22;15937;50.612;6.656;2023-02-15T21:02:42;7.90;99.90
26270;DHT22;15937;50.612;6.656;2023-02-15T21:06:43;7.90;99.90
26270;DHT22;15937;50.612;6.656;2023-02-15T21:10:46;7.70;99.90
26270;DHT22;15937;50.612;6.656;2023-02-15T21:14:48;7.60;99.90
26270;DHT22;15937;50.612;6.656;2023-02-15T21:18:50;7.50;99.90
26270;DHT22;15937;50.612;6.656;2023-02-15T21:22:51;7.50;99.90
26270;DHT22;15937;50.612;6.656;2023-02-15T21:26:54;7.50;99.90
26270;DHT22;15937;50.612;6.656;2023-02-15T21:30:56;7.50;99.90
26270;DHT22;15937;50.612;6.656;2023-02-15T21:34:58;7.60;99.90
26270;DHT22;15937;50.612;6.656;2023-02-15T21:39:00;7.70;99.90
26270;DHT22;15937;50.612;6.656;2023-02-15T21:43:04;7.50;99.90
26270;DHT22;15937;50.612;6.656;2023-02-15T21:47:26;7.50;99.90
26270;DHT22;15937;50.612;6.656;2023-02-15T21:51:46;7.30;99.90
26270;DHT22;15937;50.612;6.656;2023-02-15T21:56:10;7.60;99.90
26270;DHT22;15937;50.612;6.656;2023-02-15T22:00:16;7.60;99.90
26270;DHT22;15937;50.612;6.656;2023-02-15T22:04:25;7.60;99.90
26270;DHT22;15937;50.612;6.656;2023-02-15T22:08:27;7.50;99.90
26270;DHT22;15937;50.612;6.656;2023-02-15T22:12:29;7.60;99.90
26270;DHT22;15937;50.612;6.656;2023-02-15T22:16:30;7.60;99.90
26270;DHT22;15937;50.612;6.656;2023-02-15T22:20:32;7.70;99.90
26270;DHT22;15937;50.612;6.656;2023-02-15T22:24:34;7.60;99.90
26270;DHT22;15937;50.612;6.656;2023-02-15T22:28:39;7.60;99.90
26270;DHT22;15937;50.612;6.656;2023-02-15T22:32:41;7.60;99.90
26270;DHT22;15937;50.612;6.656;2023-02-15T22:36:43;7.70;99.90
26270;DHT22;15937;50.612;6.656;2023-02-15T22:40:45;7.70;99.90
26270;DHT22;15937;50.612;6.656;2023-02-15T22:44:48;7.80;99.90
26270;DHT22;15937;50.612;6.656;2023-02-15T22:48:50;7.80;99.90
26270;DHT22;15937;50.612;6.656;2023-02-15T22:52:52;7.90;99.90
26270;DHT22;15937;50.612;6.656;2023-02-15T22:56:54;8.00;99.90
26270;DHT22;15937;50.612;6.656;2023-02-15T23:00:55;8.20;99.90
26270;DHT22;15937;50.612;6.656;2023-02-15T23:04:59;8.20;99.90
26270;DHT22;15937;50.612;6.656;2023-02-15T23:09:00;8.20;99.90
26270;DHT22;15937;50.612;6.656;2023-02-15T23:13:06;8.20;99.90
26270;DHT22;15937;50.612;6.656;2023-02-15T23:17:25;8.10;99.90
26270;DHT22;15937;50.612;6.656;2023-02-15T23:21:28;8.10;99.90
26270;DHT22;15937;50.612;6.656;2023-02-15T23:25:31;8.10;99.90
26270;DHT22;15937;50.612;6.656;2023-02-15T23:29:32;8.00;99.90
26270;DHT22;15937;50.612;6.656;2023-02-15T23:33:34;8.00;99.90
26270;DHT22;15937;50.612;6.656;2023-02-15T23:37:36;8.00;99.90
26270;DHT22;15937;50.612;6.656;2023-02-15T23:41:38;7.90;99.90
26270;DHT22;15937;50.612;6.656;2023-02-15T23:45:39;7.80;99.90
26270;DHT22;15937;50.612;6.656;2023-02-15T23:49:41;7.60;99.90
26270;DHT22;15937;50.612;6.656;2023-02-15T23:53:43;7.50;99.90
26270;DHT22;15937;50.612;6.656;2023-02-15T23:57:44;7.60;99.90
